createdAt,value
2023-04-29T00:03:58.818Z,91.60
2023-04-29T00:14:02.624Z,90.37
2023-04-29T00:24:08.328Z,93.67
2023-04-29T00:34:11.952Z,89.70
2023-04-29T00:44:17.174Z,90.90
2023-04-29T00:54:20.692Z,90.00
2023-04-29T01:04:25.502Z,90.30
2023-04-29T01:14:29.865Z,91.00
2023-04-29T01:24:35.200Z,90.93
2023-04-29T01:34:49.368Z,90.87
2023-04-29T01:44:57.146Z,91.93
2023-04-29T01:55:02.146Z,92.63
2023-04-29T02:05:17.289Z,92.33
2023-04-29T02:15:29.840Z,92.27
2023-04-29T02:25:34.748Z,92.23
2023-04-29T02:35:38.278Z,93.23
2023-04-29T02:45:43.148Z,93.30
2023-04-29T02:55:47.270Z,93.87
2023-04-29T03:05:52.973Z,95.43
2023-04-29T03:15:58.688Z,93.90
2023-04-29T03:26:03.925Z,95.13
2023-04-29T03:36:08.848Z,95.80
2023-04-29T03:46:17.763Z,95.83
2023-04-29T03:56:23.039Z,97.77
2023-04-29T04:06:28.056Z,98.87
2023-04-29T04:16:31.855Z,96.17
2023-04-29T04:26:37.021Z,97.50
2023-04-29T04:36:40.394Z,100.93
2023-04-29T04:46:45.478Z,97.00
2023-04-29T04:56:52.643Z,96.90
2023-04-29T05:06:58.279Z,97.63
2023-04-29T05:17:05.708Z,98.87
2023-04-29T05:27:10.797Z,99.57
2023-04-29T05:37:15.265Z,106.90
2023-04-29T05:47:37.941Z,99.80
2023-04-29T05:57:41.673Z,99.70
2023-04-29T06:07:46.842Z,97.30
2023-04-29T06:18:20.966Z,90.43
2023-04-29T06:28:26.852Z,92.57
2023-04-29T06:38:30.924Z,91.97
2023-04-29T06:49:06.878Z,91.37
2023-04-29T06:59:12.259Z,91.80
2023-04-29T07:09:17.081Z,93.20
2023-04-29T07:19:20.515Z,93.97
2023-04-29T07:29:25.335Z,94.83
2023-04-29T07:39:29.132Z,138.67
2023-04-29T07:49:35.683Z,96.77
2023-04-29T07:59:39.567Z,102.73
2023-04-29T08:09:44.404Z,99.83
2023-04-29T08:19:48.011Z,99.23
2023-04-29T08:29:52.789Z,98.50
2023-04-29T08:39:56.249Z,99.00
2023-04-29T08:50:05.409Z,106.57
2023-04-29T09:00:11.303Z,115.67
2023-04-29T09:10:17.300Z,107.27
2023-04-29T09:20:31.305Z,115.73
2023-04-29T09:30:47.872Z,112.73
2023-04-29T09:40:59.406Z,115.43
2023-04-29T09:51:05.121Z,114.15
2023-04-29T10:01:09.300Z,126.85
2023-04-29T10:11:15.235Z,120.03
2023-04-29T10:21:23.150Z,124.47
2023-04-29T10:31:30.239Z,122.97
2023-04-29T10:41:39.376Z,113.88
2023-04-29T10:51:45.982Z,134.75
2023-04-29T11:01:51.317Z,119.20
2023-04-29T11:12:05.610Z,110.87
2023-04-29T11:22:30.355Z,121.17
2023-04-29T11:32:35.846Z,120.00
2023-04-29T11:42:46.693Z,107.27
2023-04-29T11:52:51.039Z,108.50
2023-04-29T12:02:55.956Z,104.93
2023-04-29T12:13:00.314Z,107.23
2023-04-29T12:23:14.759Z,103.83
2023-04-29T12:33:22.117Z,107.20
2023-04-29T12:43:29.928Z,104.27
2023-04-29T12:53:33.798Z,101.77
2023-04-29T13:03:38.765Z,102.73
2023-04-29T13:13:42.437Z,101.00
2023-04-29T13:23:48.368Z,101.60
2023-04-29T13:33:54.042Z,99.23
2023-04-29T13:43:59.048Z,114.10
2023-04-29T13:54:47.600Z,104.80
2023-04-29T14:04:28.741Z,106.50
2023-04-29T14:14:32.225Z,104.70
2023-04-29T14:24:37.387Z,127.43
2023-04-29T14:34:40.817Z,123.60
2023-04-29T14:44:45.756Z,115.03
2023-04-29T14:54:49.130Z,105.13
2023-04-29T15:04:54.768Z,118.20
2023-04-29T15:14:58.359Z,116.87
2023-04-29T15:25:03.213Z,103.47
2023-04-29T15:35:07.933Z,108.37
2023-04-29T15:45:14.000Z,105.63
2023-04-29T15:55:18.606Z,102.33
2023-04-29T16:05:23.732Z,101.40
2023-04-29T16:15:27.495Z,96.80
2023-04-29T16:25:32.223Z,104.20
2023-04-29T16:35:35.665Z,101.27
2023-04-29T16:45:40.991Z,103.10
2023-04-29T16:55:44.343Z,95.73
2023-04-29T17:05:49.371Z,97.73
2023-04-29T17:15:52.831Z,99.27
2023-04-29T17:25:57.981Z,95.43
2023-04-29T17:36:02.402Z,102.87
2023-04-29T17:46:07.252Z,102.57
2023-04-29T17:56:10.675Z,96.07
2023-04-29T18:06:15.460Z,99.67
2023-04-29T18:16:18.870Z,101.37
2023-04-29T18:26:24.279Z,100.60
2023-04-29T18:36:28.167Z,98.43
2023-04-29T18:46:33.062Z,95.33
2023-04-29T18:56:37.709Z,90.33
2023-04-29T19:06:44.659Z,91.00
2023-04-29T19:16:48.187Z,95.37
2023-04-29T19:26:52.928Z,104.77
2023-04-29T19:36:56.360Z,94.63
2023-04-29T19:47:01.195Z,95.13
2023-04-29T19:57:04.988Z,97.37
2023-04-29T20:07:09.840Z,94.10
2023-04-29T20:17:13.608Z,97.73
2023-04-29T20:27:18.580Z,94.60
2023-04-29T20:37:22.012Z,104.70
2023-04-29T20:47:27.712Z,94.63
2023-04-29T20:57:32.582Z,100.27
2023-04-29T21:07:38.051Z,101.20
2023-04-29T21:17:41.951Z,99.90
2023-04-29T21:27:46.730Z,96.73
2023-04-29T21:37:50.074Z,93.63
2023-04-29T21:47:55.602Z,101.07
2023-04-29T21:57:59.405Z,98.13
2023-04-29T22:08:07.386Z,101.93
2023-04-29T22:18:11.044Z,100.00
2023-04-29T22:28:16.095Z,102.87
2023-04-29T22:38:19.427Z,102.97
2023-04-29T22:48:27.630Z,106.93
2023-04-29T22:58:32.620Z,109.73
2023-04-29T23:08:37.392Z,118.87
2023-04-29T23:18:40.810Z,113.23
2023-04-29T23:28:45.855Z,114.13
2023-04-29T23:38:49.232Z,109.47
2023-04-29T23:48:53.973Z,103.57
2023-04-29T23:58:57.329Z,102.90
